»·PEaware :: N787FL KPOC-KSAN

N787FL :: KPOC-KSAN

FLIGHT INFORMATION

Flight Status: Arrived
Operator: Privately registered:
United States
More flights under this callsign
Pilot: Luis B. (14232)
Aircraft: CESSNA 172 SKYHAWK
(C172)
More flights by this aircraft type
Origin: KPOC Brackett
United States
Destination: KSAN San Diego Intl-Lindbergh
United States
More flights between these airports :: More routes between these airports
Route: +PRADO V16 PDZ V186 HAILE V66 MZB
File this flight plan on PilotEdge
Remarks: TEC route ONTN12
Altitude:
(Current/Filed)
9,000ft
Speed:
(Current/Filed)
100kts
Departed: 04-Jan-18 04:25 PM
Arrived: 04-Jan-18 05:28 PM
Distance/Time
Traveled:
87nm/1:02
Distance/Time
To Go:
Arrived

Flight Plot

Page will automatically refresh every two minutes.


Map Options




Map Legend


Flown Route
Filed Route
Departure Airport
Arrival Airport
Navaid (VOR, NDB)
Fix

Horizontal Profiles

Position Reports

Time Latitude Longitude Heading Altitude Ground
Speed
04-Jan-18 16:03 34.090050 -117.783336 271 990ft 0kts
04-Jan-18 16:04 34.090050 -117.783336 271 990ft 0kts
04-Jan-18 16:05 34.090050 -117.783336 271 990ft 0kts
04-Jan-18 16:06 34.090050 -117.783336 271 990ft 0kts
04-Jan-18 16:07 34.090050 -117.783336 271 990ft 0kts
04-Jan-18 16:08 34.090050 -117.783336 271 990ft 0kts
04-Jan-18 16:09 34.090050 -117.783336 271 990ft 0kts
04-Jan-18 16:10 34.090050 -117.783336 271 990ft 0kts
04-Jan-18 16:11 34.090050 -117.783336 271 990ft 0kts
04-Jan-18 16:12 34.090050 -117.783336 271 990ft 0kts
04-Jan-18 16:13 34.090050 -117.783336 271 990ft 0kts
04-Jan-18 16:14 34.090050 -117.783336 271 990ft 0kts
04-Jan-18 16:15 34.090050 -117.783336 271 990ft 0kts
04-Jan-18 16:16 34.090050 -117.783336 271 990ft 0kts
04-Jan-18 16:17 34.090050 -117.783336 271 990ft 0kts
04-Jan-18 16:18 34.090050 -117.783336 271 990ft 0kts
04-Jan-18 16:19 34.090050 -117.783336 271 990ft 0kts
04-Jan-18 16:20 34.090050 -117.783336 271 990ft 0kts
04-Jan-18 16:21 34.090050 -117.783336 271 990ft 0kts
04-Jan-18 16:22 34.090050 -117.783336 271 990ft 0kts
04-Jan-18 16:23 34.090350 -117.783333 38 990ft 4kts
04-Jan-18 16:24 34.090547 -117.780132 91 996ft 12kts
04-Jan-18 16:25 34.090318 -117.775930 91 1001ft 11kts
04-Jan-18 16:26 34.090511 -117.774640 350 1003ft 0kts
04-Jan-18 16:27 34.090511 -117.774640 349 1003ft 0kts
04-Jan-18 16:28 34.090511 -117.774640 350 1003ft 0kts
04-Jan-18 16:29 34.090511 -117.774640 350 1003ft 0kts
04-Jan-18 16:30 34.090511 -117.774640 350 1003ft 0kts
04-Jan-18 16:31 34.091269 -117.781096 273 995ft 68kts
04-Jan-18 16:32 34.092919 -117.807465 270 1590ft 77kts
04-Jan-18 16:33 34.077152 -117.807461 145 2135ft 87kts
04-Jan-18 16:34 34.058639 -117.790181 143 2739ft 85kts
04-Jan-18 16:35 34.036622 -117.786451 178 3292ft 83kts
04-Jan-18 16:36 34.015524 -117.784502 179 3922ft 74kts
04-Jan-18 16:37 33.993342 -117.782567 179 4447ft 85kts
04-Jan-18 16:38 33.969520 -117.780550 165 5019ft 87kts
04-Jan-18 16:39 33.960110 -117.754816 99 5544ft 91kts
04-Jan-18 16:40 33.956335 -117.724636 93 6049ft 91kts
04-Jan-18 16:41 33.950603 -117.695125 103 6544ft 88kts
04-Jan-18 16:42 33.945340 -117.668069 100 6993ft 80kts
04-Jan-18 16:43 33.940169 -117.642639 103 7384ft 76kts
04-Jan-18 16:44 33.935104 -117.617652 102 7705ft 80kts
04-Jan-18 16:45 33.930255 -117.590621 105 8028ft 85kts
04-Jan-18 16:46 33.924591 -117.562234 101 8347ft 90kts
04-Jan-18 16:47 33.918012 -117.532236 125 8660ft 94kts
04-Jan-18 16:48 33.898752 -117.513868 153 8968ft 91kts
04-Jan-18 16:49 33.875971 -117.495733 151 8998ft 112kts
04-Jan-18 16:50 33.849094 -117.473228 149 8995ft 121kts
04-Jan-18 16:51 33.821236 -117.449827 150 8995ft 123kts
04-Jan-18 16:52 33.793060 -117.426233 152 8997ft 123kts
04-Jan-18 16:53 33.764538 -117.402801 148 8999ft 125kts
04-Jan-18 16:54 33.735739 -117.379008 149 9001ft 125kts
04-Jan-18 16:55 33.707036 -117.354953 148 9001ft 126kts
04-Jan-18 16:56 33.680417 -117.332792 150 8999ft 125kts
04-Jan-18 16:57 33.651685 -117.309078 149 8999ft 125kts
04-Jan-18 16:58 33.623151 -117.285570 150 8998ft 123kts
04-Jan-18 16:59 33.594922 -117.262382 149 8999ft 123kts
04-Jan-18 17:00 33.566946 -117.238961 152 8978ft 121kts
04-Jan-18 17:01 33.539115 -117.216490 151 8974ft 120kts
04-Jan-18 17:02 33.512078 -117.193442 149 8971ft 119kts
04-Jan-18 17:03 33.484647 -117.172256 166 8960ft 114kts
04-Jan-18 17:04 33.455204 -117.159741 165 8966ft 112kts
04-Jan-18 17:05 33.426308 -117.145607 173 8958ft 110kts
04-Jan-18 17:06 33.397097 -117.140199 176 9000ft 108kts
04-Jan-18 17:07 33.367189 -117.133447 179 8999ft 111kts
04-Jan-18 17:08 33.336069 -117.128813 178 9000ft 114kts
04-Jan-18 17:09 33.304509 -117.122769 176 9000ft 116kts
04-Jan-18 17:10 33.272480 -117.115483 174 9000ft 118kts
04-Jan-18 17:11 33.239518 -117.104290 168 8758ft 132kts
04-Jan-18 17:12 33.203139 -117.090557 159 8271ft 141kts
04-Jan-18 17:13 33.166817 -117.072677 160 7774ft 141kts
04-Jan-18 17:14 33.130396 -117.055250 161 7277ft 141kts
04-Jan-18 17:15 33.094687 -117.038440 161 7000ft 129kts
04-Jan-18 17:16 33.062828 -117.023150 161 7006ft 121kts
04-Jan-18 17:17 33.031641 -117.008087 161 7009ft 120kts
04-Jan-18 17:18 33.000587 -116.993096 161 7011ft 120kts
04-Jan-18 17:19 32.969497 -116.978157 161 7012ft 120kts
04-Jan-18 17:20 32.938419 -116.963403 161 7011ft 121kts
04-Jan-18 17:21 32.906972 -116.948908 161 7009ft 121kts
04-Jan-18 17:22 32.880123 -116.936915 161 7006ft 121kts
04-Jan-18 17:23 32.848502 -116.923276 162 7003ft 121kts
04-Jan-18 17:24 32.815495 -116.912234 162 6778ft 133kts
04-Jan-18 17:25 32.779433 -116.897420 161 6296ft 139kts
04-Jan-18 17:26 32.754251 -116.924011 243 5781ft 133kts
04-Jan-18 17:27 32.737048 -116.962473 245 5279ft 131kts
04-Jan-18 17:28 32.721593 -117.001904 247 4786ft 133kts
04-Jan-18 17:29 32.705840 -117.042662 248 4142ft 137kts
04-Jan-18 17:30 32.708869 -117.084781 279 3308ft 112kts
04-Jan-18 17:31 32.716169 -117.116273 285 2226ft 96kts
04-Jan-18 17:32 32.723456 -117.146948 287 1064ft 93kts
04-Jan-18 17:33 32.729802 -117.174266 287 196ft 81kts
04-Jan-18 17:34 32.733183 -117.187787 309 17ft 13kts
04-Jan-18 17:35 32.733329 -117.184026 108 17ft 24kts
04-Jan-18 17:36 32.733038 -117.179320 88 20ft 0kts

Navigation Log

Ident Type
1. KPOC Airport
2. PRADO Fix
3. WISUP Fix
4. PDZ Navaid
5. NIKKL Fix
6. WESIN Fix
7. TANNR Fix
8. DEGLE Fix
9. ROBNN Fix
10. HAILE Fix
11. MZB Navaid
12. KSAN Airport